sensor_id;sensor_type;location;lat;lon;timestamp;temperature;humidity
16995;DHT22;8614;48.522;9.206;2024-01-06T00:02:10;6.60;99.90
16995;DHT22;8614;48.522;9.206;2024-01-06T00:04:37;6.60;99.90
16995;DHT22;8614;48.522;9.206;2024-01-06T00:07:04;6.60;99.90
16995;DHT22;8614;48.522;9.206;2024-01-06T00:09:31;6.60;99.90
16995;DHT22;8614;48.522;9.206;2024-01-06T00:11:57;6.60;99.90
16995;DHT22;8614;48.522;9.206;2024-01-06T00:14:24;6.50;99.90
16995;DHT22;8614;48.522;9.206;2024-01-06T00:16:52;6.50;99.90
16995;DHT22;8614;48.522;9.206;2024-01-06T00:19:19;6.50;99.90
16995;DHT22;8614;48.522;9.206;2024-01-06T00:21:46;6.60;99.90
16995;DHT22;8614;48.522;9.206;2024-01-06T00:24:13;6.50;99.90
16995;DHT22;8614;48.522;9.206;2024-01-06T00:26:39;6.50;99.90
16995;DHT22;8614;48.522;9.206;2024-01-06T00:29:06;6.50;99.90
16995;DHT22;8614;48.522;9.206;2024-01-06T00:31:33;6.50;99.90
16995;DHT22;8614;48.522;9.206;2024-01-06T00:34:01;6.50;99.90
16995;DHT22;8614;48.522;9.206;2024-01-06T00:36:29;6.50;99.90
16995;DHT22;8614;48.522;9.206;2024-01-06T00:38:55;6.50;99.90
16995;DHT22;8614;48.522;9.206;2024-01-06T00:41:22;6.50;99.90
16995;DHT22;8614;48.522;9.206;2024-01-06T00:43:49;6.40;99.90
16995;DHT22;8614;48.522;9.206;2024-01-06T00:46:16;6.40;99.90
16995;DHT22;8614;48.522;9.206;2024-01-06T00:48:42;6.40;99.90
16995;DHT22;8614;48.522;9.206;2024-01-06T00:51:11;6.40;99.90
16995;DHT22;8614;48.522;9.206;2024-01-06T00:53:37;6.40;99.90
16995;DHT22;8614;48.522;9.206;2024-01-06T00:56:04;6.40;99.90
16995;DHT22;8614;48.522;9.206;2024-01-06T00:58:31;6.50;99.90
16995;DHT22;8614;48.522;9.206;2024-01-06T01:00:58;6.40;99.90
16995;DHT22;8614;48.522;9.206;2024-01-06T01:03:25;6.40;99.90
16995;DHT22;8614;48.522;9.206;2024-01-06T01:05:51;6.40;99.90
16995;DHT22;8614;48.522;9.206;2024-01-06T01:08:20;6.40;99.90
16995;DHT22;8614;48.522;9.206;2024-01-06T01:10:46;6.40;99.90
16995;DHT22;8614;48.522;9.206;2024-01-06T01:13:13;6.40;99.90
16995;DHT22;8614;48.522;9.206;2024-01-06T01:15:40;6.30;99.90
16995;DHT22;8614;48.522;9.206;2024-01-06T01:18:07;6.30;99.90
16995;DHT22;8614;48.522;9.206;2024-01-06T01:20:33;6.30;99.90
16995;DHT22;8614;48.522;9.206;2024-01-06T01:23:00;6.30;99.90
16995;DHT22;8614;48.522;9.206;2024-01-06T01:25:28;6.20;99.90
16995;DHT22;8614;48.522;9.206;2024-01-06T01:27:55;6.20;99.90
16995;DHT22;8614;48.522;9.206;2024-01-06T01:30:22;6.30;99.90
16995;DHT22;8614;48.522;9.206;2024-01-06T01:32:48;6.20;99.90
16995;DHT22;8614;48.522;9.206;2024-01-06T01:35:15;6.30;99.90
16995;DHT22;8614;48.522;9.206;2024-01-06T01:37:42;6.20;99.90
16995;DHT22;8614;48.522;9.206;2024-01-06T01:40:09;6.20;99.90
16995;DHT22;8614;48.522;9.206;2024-01-06T01:42:38;6.20;99.90
16995;DHT22;8614;48.522;9.206;2024-01-06T01:45:05;6.20;99.90
16995;DHT22;8614;48.522;9.206;2024-01-06T01:47:32;6.20;99.90
16995;DHT22;8614;48.522;9.206;2024-01-06T01:49:59;6.10;99.90
16995;DHT22;8614;48.522;9.206;2024-01-06T01:52:27;6.10;99.90
16995;DHT22;8614;48.522;9.206;2024-01-06T01:54:54;6.10;99.90
16995;DHT22;8614;48.522;9.206;2024-01-06T01:57:23;6.10;99.90
16995;DHT22;8614;48.522;9.206;2024-01-06T01:59:52;6.10;99.90
16995;DHT22;8614;48.522;9.206;2024-01-06T02:02:20;6.10;99.90
16995;DHT22;8614;48.522;9.206;2024-01-06T02:04:47;6.10;99.90
16995;DHT22;8614;48.522;9.206;2024-01-06T02:07:14;6.00;99.90
16995;DHT22;8614;48.522;9.206;2024-01-06T02:09:41;6.10;99.90
16995;DHT22;8614;48.522;9.206;2024-01-06T02:12:08;6.00;99.90
16995;DHT22;8614;48.522;9.206;2024-01-06T02:14:34;6.00;99.90
16995;DHT22;8614;48.522;9.206;2024-01-06T02:17:03;6.00;99.90
16995;DHT22;8614;48.522;9.206;2024-01-06T02:19:30;6.00;99.90
16995;DHT22;8614;48.522;9.206;2024-01-06T02:21:58;6.00;99.90
16995;DHT22;8614;48.522;9.206;2024-01-06T02:24:24;6.00;99.90
16995;DHT22;8614;48.522;9.206;2024-01-06T02:26:51;5.90;99.90
16995;DHT22;8614;48.522;9.206;2024-01-06T02:29:18;5.90;99.90
16995;DHT22;8614;48.522;9.206;2024-01-06T02:31:45;5.90;99.90
16995;DHT22;8614;48.522;9.206;2024-01-06T02:34:11;5.90;99.90
16995;DHT22;8614;48.522;9.206;2024-01-06T02:36:38;5.90;99.90
16995;DHT22;8614;48.522;9.206;2024-01-06T02:39:06;5.90;99.90
16995;DHT22;8614;48.522;9.206;2024-01-06T02:41:33;5.90;99.90
16995;DHT22;8614;48.522;9.206;2024-01-06T02:44:00;5.90;99.90
16995;DHT22;8614;48.522;9.206;2024-01-06T02:46:28;5.90;99.90
16995;DHT22;8614;48.522;9.206;2024-01-06T02:48:55;5.90;99.90
16995;DHT22;8614;48.522;9.206;2024-01-06T02:51:21;5.90;99.90
16995;DHT22;8614;48.522;9.206;2024-01-06T02:53:48;5.90;99.90
16995;DHT22;8614;48.522;9.206;2024-01-06T02:56:16;5.90;99.90
16995;DHT22;8614;48.522;9.206;2024-01-06T02:58:43;5.90;99.90
16995;DHT22;8614;48.522;9.206;2024-01-06T03:01:11;5.90;99.90
16995;DHT22;8614;48.522;9.206;2024-01-06T03:03:38;5.90;99.90
16995;DHT22;8614;48.522;9.206;2024-01-06T03:06:05;5.90;99.90
16995;DHT22;8614;48.522;9.206;2024-01-06T03:08:32;5.90;99.90
16995;DHT22;8614;48.522;9.206;2024-01-06T03:11:00;5.80;99.90
16995;DHT22;8614;48.522;9.206;2024-01-06T03:13:31;5.90;99.90
16995;DHT22;8614;48.522;9.206;2024-01-06T03:16:03;5.80;99.90
16995;DHT22;8614;48.522;9.206;2024-01-06T03:18:30;5.80;99.90
16995;DHT22;8614;48.522;9.206;2024-01-06T03:20:56;5.80;99.90
16995;DHT22;8614;48.522;9.206;2024-01-06T03:23:23;5.80;99.90
16995;DHT22;8614;48.522;9.206;2024-01-06T03:25:50;5.80;99.90
16995;DHT22;8614;48.522;9.206;2024-01-06T03:28:17;5.80;99.90
16995;DHT22;8614;48.522;9.206;2024-01-06T03:30:45;5.80;99.90
16995;DHT22;8614;48.522;9.206;2024-01-06T03:33:12;5.80;99.90
16995;DHT22;8614;48.522;9.206;2024-01-06T03:35:39;5.80;99.90
16995;DHT22;8614;48.522;9.206;2024-01-06T03:38:05;5.80;99.90
16995;DHT22;8614;48.522;9.206;2024-01-06T03:40:32;5.80;99.90
16995;DHT22;8614;48.522;9.206;2024-01-06T03:42:59;5.80;99.90
16995;DHT22;8614;48.522;9.206;2024-01-06T03:45:26;5.80;99.90
16995;DHT22;8614;48.522;9.206;2024-01-06T03:47:54;5.70;99.90
16995;DHT22;8614;48.522;9.206;2024-01-06T03:50:20;5.70;99.90
16995;DHT22;8614;48.522;9.206;2024-01-06T03:52:47;5.70;99.90
16995;DHT22;8614;48.522;9.206;2024-01-06T03:55:15;5.70;99.90
16995;DHT22;8614;48.522;9.206;2024-01-06T03:57:42;5.70;99.90
16995;DHT22;8614;48.522;9.206;2024-01-06T04:00:09;5.70;99.90
16995;DHT22;8614;48.522;9.206;2024-01-06T04:02:36;5.70;99.90
16995;DHT22;8614;48.522;9.206;2024-01-06T04:05:04;5.70;99.90
16995;DHT22;8614;48.522;9.206;2024-01-06T04:07:31;5.70;99.90
16995;DHT22;8614;48.522;9.206;2024-01-06T04:09:58;5.70;99.90
16995;DHT22;8614;48.522;9.206;2024-01-06T04:12:25;5.70;99.90
16995;DHT22;8614;48.522;9.206;2024-01-06T04:14:52;5.70;99.90
16995;DHT22;8614;48.522;9.206;2024-01-06T04:17:18;5.70;99.90
16995;DHT22;8614;48.522;9.206;2024-01-06T04:19:45;5.70;99.90
16995;DHT22;8614;48.522;9.206;2024-01-06T04:22:13;5.60;99.90
16995;DHT22;8614;48.522;9.206;2024-01-06T04:24:40;5.70;99.90
16995;DHT22;8614;48.522;9.206;2024-01-06T04:27:07;5.70;99.90
16995;DHT22;8614;48.522;9.206;2024-01-06T04:29:35;5.60;99.90
16995;DHT22;8614;48.522;9.206;2024-01-06T04:32:16;5.60;99.90
16995;DHT22;8614;48.522;9.206;2024-01-06T04:34:43;5.60;99.90
16995;DHT22;8614;48.522;9.206;2024-01-06T04:37:09;5.60;99.90
16995;DHT22;8614;48.522;9.206;2024-01-06T04:39:37;5.60;99.90
16995;DHT22;8614;48.522;9.206;2024-01-06T04:42:05;5.60;99.90
16995;DHT22;8614;48.522;9.206;2024-01-06T04:44:31;5.50;99.90
16995;DHT22;8614;48.522;9.206;2024-01-06T04:46:58;5.50;99.90
16995;DHT22;8614;48.522;9.206;2024-01-06T04:49:25;5.50;99.90
16995;DHT22;8614;48.522;9.206;2024-01-06T04:51:52;5.50;99.90
16995;DHT22;8614;48.522;9.206;2024-01-06T04:54:19;5.50;99.90
16995;DHT22;8614;48.522;9.206;2024-01-06T04:56:47;5.50;99.90
16995;DHT22;8614;48.522;9.206;2024-01-06T04:59:13;5.50;99.90
16995;DHT22;8614;48.522;9.206;2024-01-06T05:01:40;5.40;99.90
16995;DHT22;8614;48.522;9.206;2024-01-06T05:04:07;5.40;99.90
16995;DHT22;8614;48.522;9.206;2024-01-06T05:06:34;5.40;99.90
16995;DHT22;8614;48.522;9.206;2024-01-06T05:09:01;5.40;99.90
16995;DHT22;8614;48.522;9.206;2024-01-06T05:11:28;5.40;99.90
16995;DHT22;8614;48.522;9.206;2024-01-06T05:13:56;5.40;99.90
16995;DHT22;8614;48.522;9.206;2024-01-06T05:16:23;5.40;99.90
16995;DHT22;8614;48.522;9.206;2024-01-06T05:18:49;5.40;99.90
16995;DHT22;8614;48.522;9.206;2024-01-06T05:21:16;5.40;99.90
16995;DHT22;8614;48.522;9.206;2024-01-06T05:23:43;5.30;99.90
16995;DHT22;8614;48.522;9.206;2024-01-06T05:26:10;5.40;99.90
16995;DHT22;8614;48.522;9.206;2024-01-06T05:28:39;5.40;99.90
16995;DHT22;8614;48.522;9.206;2024-01-06T05:31:07;5.40;99.90
16995;DHT22;8614;48.522;9.206;2024-01-06T05:33:34;5.40;99.90
16995;DHT22;8614;48.522;9.206;2024-01-06T05:36:00;5.40;99.90
16995;DHT22;8614;48.522;9.206;2024-01-06T05:38:27;5.40;99.90
16995;DHT22;8614;48.522;9.206;2024-01-06T05:40:53;5.40;99.90
16995;DHT22;8614;48.522;9.206;2024-01-06T05:43:20;5.40;99.90
16995;DHT22;8614;48.522;9.206;2024-01-06T05:45:46;5.40;99.90
16995;DHT22;8614;48.522;9.206;2024-01-06T05:48:15;5.40;99.90
16995;DHT22;8614;48.522;9.206;2024-01-06T05:50:41;5.40;99.90
16995;DHT22;8614;48.522;9.206;2024-01-06T05:53:08;5.40;99.90
16995;DHT22;8614;48.522;9.206;2024-01-06T05:55:36;5.40;99.90
16995;DHT22;8614;48.522;9.206;2024-01-06T05:58:03;5.40;99.90
16995;DHT22;8614;48.522;9.206;2024-01-06T06:00:30;5.50;99.90
16995;DHT22;8614;48.522;9.206;2024-01-06T06:02:57;5.50;99.90
16995;DHT22;8614;48.522;9.206;2024-01-06T06:05:25;5.40;99.90
16995;DHT22;8614;48.522;9.206;2024-01-06T06:07:52;5.40;99.90
16995;DHT22;8614;48.522;9.206;2024-01-06T06:10:20;5.40;99.90
16995;DHT22;8614;48.522;9.206;2024-01-06T06:12:47;5.40;99.90
16995;DHT22;8614;48.522;9.206;2024-01-06T06:15:14;5.50;99.90
16995;DHT22;8614;48.522;9.206;2024-01-06T06:17:40;5.40;99.90
16995;DHT22;8614;48.522;9.206;2024-01-06T06:20:07;5.50;99.90
16995;DHT22;8614;48.522;9.206;2024-01-06T06:22:36;5.50;99.90
16995;DHT22;8614;48.522;9.206;2024-01-06T06:25:03;5.50;99.90
16995;DHT22;8614;48.522;9.206;2024-01-06T06:27:30;5.50;99.90
16995;DHT22;8614;48.522;9.206;2024-01-06T06:29:56;5.50;99.90
16995;DHT22;8614;48.522;9.206;2024-01-06T06:32:23;5.50;99.90
16995;DHT22;8614;48.522;9.206;2024-01-06T06:34:50;5.40;99.90
16995;DHT22;8614;48.522;9.206;2024-01-06T06:37:18;5.40;99.90
16995;DHT22;8614;48.522;9.206;2024-01-06T06:39:46;5.40;99.90
16995;DHT22;8614;48.522;9.206;2024-01-06T06:42:13;5.40;99.90
16995;DHT22;8614;48.522;9.206;2024-01-06T06:44:39;5.40;99.90
16995;DHT22;8614;48.522;9.206;2024-01-06T06:47:06;5.40;99.90
16995;DHT22;8614;48.522;9.206;2024-01-06T06:49:33;5.40;99.90
16995;DHT22;8614;48.522;9.206;2024-01-06T06:52:00;5.40;99.90
16995;DHT22;8614;48.522;9.206;2024-01-06T06:54:29;5.40;99.90
16995;DHT22;8614;48.522;9.206;2024-01-06T06:56:57;5.40;99.90
16995;DHT22;8614;48.522;9.206;2024-01-06T06:59:26;5.40;99.90
16995;DHT22;8614;48.522;9.206;2024-01-06T07:01:53;5.40;99.90
16995;DHT22;8614;48.522;9.206;2024-01-06T07:04:20;5.40;99.90
16995;DHT22;8614;48.522;9.206;2024-01-06T07:06:48;5.40;99.90
16995;DHT22;8614;48.522;9.206;2024-01-06T07:09:15;5.40;99.90
16995;DHT22;8614;48.522;9.206;2024-01-06T07:11:42;5.40;99.90
16995;DHT22;8614;48.522;9.206;2024-01-06T07:14:10;5.40;99.90
16995;DHT22;8614;48.522;9.206;2024-01-06T07:16:37;5.40;99.90
16995;DHT22;8614;48.522;9.206;2024-01-06T07:19:05;5.40;99.90
16995;DHT22;8614;48.522;9.206;2024-01-06T07:21:32;5.30;99.90
16995;DHT22;8614;48.522;9.206;2024-01-06T07:23:59;5.30;99.90
16995;DHT22;8614;48.522;9.206;2024-01-06T07:26:26;5.30;99.90
16995;DHT22;8614;48.522;9.206;2024-01-06T07:28:53;5.30;99.90
16995;DHT22;8614;48.522;9.206;2024-01-06T07:31:21;5.30;99.90
16995;DHT22;8614;48.522;9.206;2024-01-06T07:33:48;5.20;99.90
16995;DHT22;8614;48.522;9.206;2024-01-06T07:36:15;5.20;99.90
16995;DHT22;8614;48.522;9.206;2024-01-06T07:38:42;5.20;99.90
16995;DHT22;8614;48.522;9.206;2024-01-06T07:41:11;5.30;99.90
16995;DHT22;8614;48.522;9.206;2024-01-06T07:43:38;5.30;99.90
16995;DHT22;8614;48.522;9.206;2024-01-06T07:46:05;5.30;99.90
16995;DHT22;8614;48.522;9.206;2024-01-06T07:48:33;5.30;99.90
16995;DHT22;8614;48.522;9.206;2024-01-06T07:51:01;5.30;99.90
16995;DHT22;8614;48.522;9.206;2024-01-06T07:53:29;5.30;99.90
16995;DHT22;8614;48.522;9.206;2024-01-06T07:55:55;5.30;99.90
16995;DHT22;8614;48.522;9.206;2024-01-06T07:58:22;5.30;99.90
16995;DHT22;8614;48.522;9.206;2024-01-06T08:00:49;5.30;99.90
16995;DHT22;8614;48.522;9.206;2024-01-06T08:03:16;5.40;99.90
16995;DHT22;8614;48.522;9.206;2024-01-06T08:05:44;5.40;99.90
16995;DHT22;8614;48.522;9.206;2024-01-06T08:08:12;5.40;99.90
16995;DHT22;8614;48.522;9.206;2024-01-06T08:10:42;5.40;99.90
16995;DHT22;8614;48.522;9.206;2024-01-06T08:13:09;5.50;99.90
16995;DHT22;8614;48.522;9.206;2024-01-06T08:15:36;5.50;99.90
16995;DHT22;8614;48.522;9.206;2024-01-06T08:18:03;5.50;99.90
16995;DHT22;8614;48.522;9.206;2024-01-06T08:20:33;5.60;99.90
16995;DHT22;8614;48.522;9.206;2024-01-06T08:23:01;5.60;99.90
16995;DHT22;8614;48.522;9.206;2024-01-06T08:25:29;5.60;99.90
16995;DHT22;8614;48.522;9.206;2024-01-06T08:27:55;5.60;99.90
16995;DHT22;8614;48.522;9.206;2024-01-06T08:30:22;5.70;99.90
16995;DHT22;8614;48.522;9.206;2024-01-06T08:32:50;5.70;99.90
16995;DHT22;8614;48.522;9.206;2024-01-06T08:35:17;5.80;99.90
16995;DHT22;8614;48.522;9.206;2024-01-06T08:37:45;5.80;99.90
16995;DHT22;8614;48.522;9.206;2024-01-06T08:40:13;5.90;99.90
16995;DHT22;8614;48.522;9.206;2024-01-06T08:42:40;5.90;99.90
16995;DHT22;8614;48.522;9.206;2024-01-06T08:45:07;5.90;99.90
16995;DHT22;8614;48.522;9.206;2024-01-06T08:47:34;6.00;99.90
16995;DHT22;8614;48.522;9.206;2024-01-06T08:50:00;6.00;99.90
16995;DHT22;8614;48.522;9.206;2024-01-06T08:52:28;6.00;99.90
16995;DHT22;8614;48.522;9.206;2024-01-06T08:54:54;6.10;99.90
16995;DHT22;8614;48.522;9.206;2024-01-06T08:57:22;6.10;99.90
16995;DHT22;8614;48.522;9.206;2024-01-06T08:59:49;6.20;99.90
16995;DHT22;8614;48.522;9.206;2024-01-06T09:02:16;6.20;99.90
16995;DHT22;8614;48.522;9.206;2024-01-06T09:04:43;6.30;99.90
16995;DHT22;8614;48.522;9.206;2024-01-06T09:07:13;6.30;99.90
16995;DHT22;8614;48.522;9.206;2024-01-06T09:09:39;6.40;99.90
16995;DHT22;8614;48.522;9.206;2024-01-06T09:12:07;6.50;99.90
16995;DHT22;8614;48.522;9.206;2024-01-06T09:14:35;6.50;99.90
16995;DHT22;8614;48.522;9.206;2024-01-06T09:17:02;6.60;99.90
16995;DHT22;8614;48.522;9.206;2024-01-06T09:19:29;6.60;99.90
16995;DHT22;8614;48.522;9.206;2024-01-06T09:21:56;6.80;99.90
16995;DHT22;8614;48.522;9.206;2024-01-06T09:24:23;6.80;99.90
16995;DHT22;8614;48.522;9.206;2024-01-06T09:26:50;6.90;99.90
16995;DHT22;8614;48.522;9.206;2024-01-06T09:29:17;6.90;99.90
16995;DHT22;8614;48.522;9.206;2024-01-06T09:31:45;6.90;99.90
16995;DHT22;8614;48.522;9.206;2024-01-06T09:34:12;7.00;99.90
16995;DHT22;8614;48.522;9.206;2024-01-06T09:36:38;7.00;99.90
16995;DHT22;8614;48.522;9.206;2024-01-06T09:39:05;7.00;99.90
16995;DHT22;8614;48.522;9.206;2024-01-06T09:41:33;7.10;99.90
16995;DHT22;8614;48.522;9.206;2024-01-06T09:44:00;7.10;99.90
16995;DHT22;8614;48.522;9.206;2024-01-06T09:46:28;7.20;99.90
16995;DHT22;8614;48.522;9.206;2024-01-06T09:48:57;7.30;99.90
16995;DHT22;8614;48.522;9.206;2024-01-06T09:51:25;7.40;99.90
16995;DHT22;8614;48.522;9.206;2024-01-06T09:53:56;7.40;99.90
16995;DHT22;8614;48.522;9.206;2024-01-06T09:56:25;7.40;99.90
16995;DHT22;8614;48.522;9.206;2024-01-06T09:58:52;7.30;99.90
16995;DHT22;8614;48.522;9.206;2024-01-06T10:01:19;7.30;99.90
16995;DHT22;8614;48.522;9.206;2024-01-06T10:03:46;7.30;99.90
16995;DHT22;8614;48.522;9.206;2024-01-06T10:06:15;7.30;99.90
16995;DHT22;8614;48.522;9.206;2024-01-06T10:08:43;7.30;99.90
16995;DHT22;8614;48.522;9.206;2024-01-06T10:11:09;7.30;99.90
16995;DHT22;8614;48.522;9.206;2024-01-06T10:13:36;7.30;99.90
16995;DHT22;8614;48.522;9.206;2024-01-06T10:16:04;7.30;99.90
16995;DHT22;8614;48.522;9.206;2024-01-06T10:18:31;7.30;99.90
16995;DHT22;8614;48.522;9.206;2024-01-06T10:20:58;7.30;99.90
16995;DHT22;8614;48.522;9.206;2024-01-06T10:23:28;7.30;99.90
16995;DHT22;8614;48.522;9.206;2024-01-06T10:25:55;7.30;99.90
16995;DHT22;8614;48.522;9.206;2024-01-06T10:28:25;7.30;99.90
16995;DHT22;8614;48.522;9.206;2024-01-06T10:30:52;7.30;99.90
16995;DHT22;8614;48.522;9.206;2024-01-06T10:33:19;7.30;99.90
16995;DHT22;8614;48.522;9.206;2024-01-06T10:35:47;7.30;99.90
16995;DHT22;8614;48.522;9.206;2024-01-06T10:38:14;7.30;99.90
16995;DHT22;8614;48.522;9.206;2024-01-06T10:40:56;7.30;99.90
16995;DHT22;8614;48.522;9.206;2024-01-06T10:43:25;7.30;99.90
16995;DHT22;8614;48.522;9.206;2024-01-06T10:45:53;7.30;99.90
16995;DHT22;8614;48.522;9.206;2024-01-06T10:48:24;7.30;99.90
16995;DHT22;8614;48.522;9.206;2024-01-06T10:50:52;7.30;99.90
16995;DHT22;8614;48.522;9.206;2024-01-06T10:53:21;7.30;99.90
16995;DHT22;8614;48.522;9.206;2024-01-06T10:55:51;7.30;99.90
16995;DHT22;8614;48.522;9.206;2024-01-06T10:58:18;7.40;99.90
16995;DHT22;8614;48.522;9.206;2024-01-06T11:00:46;7.40;99.90
16995;DHT22;8614;48.522;9.206;2024-01-06T11:03:14;7.40;99.90
16995;DHT22;8614;48.522;9.206;2024-01-06T11:05:41;7.50;99.90
16995;DHT22;8614;48.522;9.206;2024-01-06T11:08:09;7.50;99.90
16995;DHT22;8614;48.522;9.206;2024-01-06T11:10:37;7.50;99.90
16995;DHT22;8614;48.522;9.206;2024-01-06T11:13:12;7.60;99.90
16995;DHT22;8614;48.522;9.206;2024-01-06T11:15:43;7.50;99.90
16995;DHT22;8614;48.522;9.206;2024-01-06T11:18:30;7.50;99.90
16995;DHT22;8614;48.522;9.206;2024-01-06T11:21:17;7.50;99.90
16995;DHT22;8614;48.522;9.206;2024-01-06T11:24:18;7.40;99.90
16995;DHT22;8614;48.522;9.206;2024-01-06T11:26:49;7.50;99.90
16995;DHT22;8614;48.522;9.206;2024-01-06T11:29:17;7.50;99.90
16995;DHT22;8614;48.522;9.206;2024-01-06T11:32:24;7.40;99.90
16995;DHT22;8614;48.522;9.206;2024-01-06T11:34:52;7.50;99.90
16995;DHT22;8614;48.522;9.206;2024-01-06T11:37:23;7.50;99.90
16995;DHT22;8614;48.522;9.206;2024-01-06T11:39:50;7.50;99.90
16995;DHT22;8614;48.522;9.206;2024-01-06T11:42:18;7.60;99.90
16995;DHT22;8614;48.522;9.206;2024-01-06T11:44:51;7.80;99.90
16995;DHT22;8614;48.522;9.206;2024-01-06T11:47:18;7.80;99.90
16995;DHT22;8614;48.522;9.206;2024-01-06T11:49:53;7.90;99.90
16995;DHT22;8614;48.522;9.206;2024-01-06T11:52:21;7.90;99.90
16995;DHT22;8614;48.522;9.206;2024-01-06T11:54:49;7.90;99.90
16995;DHT22;8614;48.522;9.206;2024-01-06T11:57:16;7.90;99.90
16995;DHT22;8614;48.522;9.206;2024-01-06T11:59:43;7.90;99.90
16995;DHT22;8614;48.522;9.206;2024-01-06T12:02:12;7.90;99.90
16995;DHT22;8614;48.522;9.206;2024-01-06T12:04:39;7.90;99.90
16995;DHT22;8614;48.522;9.206;2024-01-06T12:07:07;7.90;99.90
16995;DHT22;8614;48.522;9.206;2024-01-06T12:09:34;7.80;99.90
16995;DHT22;8614;48.522;9.206;2024-01-06T12:12:03;7.70;99.90
16995;DHT22;8614;48.522;9.206;2024-01-06T12:14:31;7.70;99.90
16995;DHT22;8614;48.522;9.206;2024-01-06T12:16:58;7.60;99.90
16995;DHT22;8614;48.522;9.206;2024-01-06T12:19:29;7.60;99.90
16995;DHT22;8614;48.522;9.206;2024-01-06T12:21:57;7.60;99.90
16995;DHT22;8614;48.522;9.206;2024-01-06T12:24:24;7.50;99.90
16995;DHT22;8614;48.522;9.206;2024-01-06T12:26:51;7.50;99.90
16995;DHT22;8614;48.522;9.206;2024-01-06T12:29:17;7.50;99.90
16995;DHT22;8614;48.522;9.206;2024-01-06T12:31:46;7.50;99.90
16995;DHT22;8614;48.522;9.206;2024-01-06T12:34:12;7.50;99.90
16995;DHT22;8614;48.522;9.206;2024-01-06T12:36:41;7.50;99.90
16995;DHT22;8614;48.522;9.206;2024-01-06T12:39:11;7.40;99.90
16995;DHT22;8614;48.522;9.206;2024-01-06T12:41:39;7.40;99.90
16995;DHT22;8614;48.522;9.206;2024-01-06T12:44:06;7.40;99.90
16995;DHT22;8614;48.522;9.206;2024-01-06T12:46:33;7.30;99.90
16995;DHT22;8614;48.522;9.206;2024-01-06T12:49:01;7.30;99.90
16995;DHT22;8614;48.522;9.206;2024-01-06T12:51:28;7.30;99.90
16995;DHT22;8614;48.522;9.206;2024-01-06T12:53:56;7.40;99.90
16995;DHT22;8614;48.522;9.206;2024-01-06T12:56:23;7.50;99.90
16995;DHT22;8614;48.522;9.206;2024-01-06T12:58:50;7.50;99.90
16995;DHT22;8614;48.522;9.206;2024-01-06T13:01:17;7.50;99.90
16995;DHT22;8614;48.522;9.206;2024-01-06T13:03:44;7.50;99.90
16995;DHT22;8614;48.522;9.206;2024-01-06T13:06:12;7.40;99.90
16995;DHT22;8614;48.522;9.206;2024-01-06T13:08:39;7.40;99.90
16995;DHT22;8614;48.522;9.206;2024-01-06T13:11:07;7.40;99.90
16995;DHT22;8614;48.522;9.206;2024-01-06T13:13:34;7.40;99.90
16995;DHT22;8614;48.522;9.206;2024-01-06T13:16:00;7.30;99.90
16995;DHT22;8614;48.522;9.206;2024-01-06T13:18:28;7.30;99.90
16995;DHT22;8614;48.522;9.206;2024-01-06T13:20:55;7.30;99.90
16995;DHT22;8614;48.522;9.206;2024-01-06T13:23:22;7.30;99.90
16995;DHT22;8614;48.522;9.206;2024-01-06T13:25:49;7.30;99.90
16995;DHT22;8614;48.522;9.206;2024-01-06T13:28:17;7.20;99.90
16995;DHT22;8614;48.522;9.206;2024-01-06T13:30:44;7.20;99.90
16995;DHT22;8614;48.522;9.206;2024-01-06T13:33:12;7.20;99.90
16995;DHT22;8614;48.522;9.206;2024-01-06T13:35:38;7.20;99.90
16995;DHT22;8614;48.522;9.206;2024-01-06T13:38:05;7.20;99.90
16995;DHT22;8614;48.522;9.206;2024-01-06T13:40:34;7.20;99.90
16995;DHT22;8614;48.522;9.206;2024-01-06T13:43:01;7.20;99.90
16995;DHT22;8614;48.522;9.206;2024-01-06T13:45:31;7.20;99.90
16995;DHT22;8614;48.522;9.206;2024-01-06T13:47:59;7.10;99.90
16995;DHT22;8614;48.522;9.206;2024-01-06T13:50:25;7.10;99.90
16995;DHT22;8614;48.522;9.206;2024-01-06T13:52:52;7.10;99.90
16995;DHT22;8614;48.522;9.206;2024-01-06T13:55:23;7.10;99.90
16995;DHT22;8614;48.522;9.206;2024-01-06T13:57:50;7.10;99.90
16995;DHT22;8614;48.522;9.206;2024-01-06T14:00:17;7.10;99.90
16995;DHT22;8614;48.522;9.206;2024-01-06T14:02:47;7.10;99.90
16995;DHT22;8614;48.522;9.206;2024-01-06T14:05:17;7.10;99.90
16995;DHT22;8614;48.522;9.206;2024-01-06T14:07:44;7.10;99.90
16995;DHT22;8614;48.522;9.206;2024-01-06T14:10:14;7.10;99.90
16995;DHT22;8614;48.522;9.206;2024-01-06T14:12:41;7.10;99.90
16995;DHT22;8614;48.522;9.206;2024-01-06T14:15:09;7.00;99.90
16995;DHT22;8614;48.522;9.206;2024-01-06T14:17:35;7.00;99.90
16995;DHT22;8614;48.522;9.206;2024-01-06T14:20:05;7.00;99.90
16995;DHT22;8614;48.522;9.206;2024-01-06T14:22:32;7.00;99.90
16995;DHT22;8614;48.522;9.206;2024-01-06T14:24:59;7.00;99.90
16995;DHT22;8614;48.522;9.206;2024-01-06T14:27:25;6.90;99.90
16995;DHT22;8614;48.522;9.206;2024-01-06T14:29:54;6.90;99.90
16995;DHT22;8614;48.522;9.206;2024-01-06T14:32:21;6.80;99.90
16995;DHT22;8614;48.522;9.206;2024-01-06T14:34:49;6.90;99.90
16995;DHT22;8614;48.522;9.206;2024-01-06T14:37:18;6.90;99.90
16995;DHT22;8614;48.522;9.206;2024-01-06T14:39:45;6.80;99.90
16995;DHT22;8614;48.522;9.206;2024-01-06T14:42:12;6.80;99.90
16995;DHT22;8614;48.522;9.206;2024-01-06T14:44:38;6.80;99.90
16995;DHT22;8614;48.522;9.206;2024-01-06T14:47:05;6.80;99.90
16995;DHT22;8614;48.522;9.206;2024-01-06T14:49:33;6.80;99.90
16995;DHT22;8614;48.522;9.206;2024-01-06T14:52:00;6.80;99.90
16995;DHT22;8614;48.522;9.206;2024-01-06T14:54:29;6.80;99.90
16995;DHT22;8614;48.522;9.206;2024-01-06T14:56:58;6.70;99.90
16995;DHT22;8614;48.522;9.206;2024-01-06T14:59:25;6.70;99.90
16995;DHT22;8614;48.522;9.206;2024-01-06T15:01:52;6.70;99.90
16995;DHT22;8614;48.522;9.206;2024-01-06T15:04:19;6.70;99.90
16995;DHT22;8614;48.522;9.206;2024-01-06T15:06:45;6.70;99.90
16995;DHT22;8614;48.522;9.206;2024-01-06T15:09:12;6.70;99.90
16995;DHT22;8614;48.522;9.206;2024-01-06T15:11:41;6.70;99.90
16995;DHT22;8614;48.522;9.206;2024-01-06T15:14:07;6.60;99.90
16995;DHT22;8614;48.522;9.206;2024-01-06T15:16:34;6.60;99.90
16995;DHT22;8614;48.522;9.206;2024-01-06T15:19:02;6.60;99.90
16995;DHT22;8614;48.522;9.206;2024-01-06T15:21:29;6.60;99.90
16995;DHT22;8614;48.522;9.206;2024-01-06T15:23:59;6.60;99.90
16995;DHT22;8614;48.522;9.206;2024-01-06T15:26:26;6.60;99.90
16995;DHT22;8614;48.522;9.206;2024-01-06T15:28:55;6.60;99.90
16995;DHT22;8614;48.522;9.206;2024-01-06T15:31:26;6.50;99.90
16995;DHT22;8614;48.522;9.206;2024-01-06T15:33:53;6.50;99.90
16995;DHT22;8614;48.522;9.206;2024-01-06T15:36:20;6.50;99.90
16995;DHT22;8614;48.522;9.206;2024-01-06T15:38:47;6.50;99.90
16995;DHT22;8614;48.522;9.206;2024-01-06T15:41:14;6.50;99.90
16995;DHT22;8614;48.522;9.206;2024-01-06T15:43:41;6.40;99.90
16995;DHT22;8614;48.522;9.206;2024-01-06T15:46:09;6.40;99.90
16995;DHT22;8614;48.522;9.206;2024-01-06T15:48:36;6.40;99.90
16995;DHT22;8614;48.522;9.206;2024-01-06T15:51:03;6.30;99.90
16995;DHT22;8614;48.522;9.206;2024-01-06T15:53:30;6.30;99.90
16995;DHT22;8614;48.522;9.206;2024-01-06T15:55:58;6.30;99.90
16995;DHT22;8614;48.522;9.206;2024-01-06T15:58:25;6.30;99.90
16995;DHT22;8614;48.522;9.206;2024-01-06T16:00:52;6.30;99.90
16995;DHT22;8614;48.522;9.206;2024-01-06T16:03:20;6.30;99.90
16995;DHT22;8614;48.522;9.206;2024-01-06T16:05:46;6.30;99.90